createdAt,value
2018-06-12T19:42:16.078Z,99171.06
2018-06-12T19:44:44.165Z,99174.09
2018-06-12T19:51:32.470Z,99184.22
2018-06-12T19:54:02.044Z,99175.09
2018-06-12T19:56:31.136Z,99178.91
2018-06-12T19:58:59.970Z,99184.87
2018-06-12T20:01:28.398Z,99178.55
2018-06-12T20:03:56.250Z,99192.84
2018-06-12T20:06:25.569Z,99199.80
2018-06-12T20:09:25.109Z,99196.37
2018-06-12T20:11:53.206Z,99200.47
2018-06-12T20:14:20.783Z,99208.14
2018-06-12T20:16:51.659Z,99204.16
2018-06-12T20:19:23.575Z,99217.69
2018-06-12T20:21:58.515Z,99223.57
2018-06-12T20:27:02.971Z,99224.54
2018-06-12T20:29:32.361Z,99229.00
2018-06-12T20:32:01.925Z,99231.30
2018-06-12T20:34:30.075Z,99226.92
2018-06-12T20:36:59.454Z,99236.44
2018-06-12T20:39:29.929Z,99235.31
2018-06-12T20:41:58.219Z,99240.27
2018-06-12T20:44:28.682Z,99238.31
2018-06-12T20:46:57.873Z,99242.24
2018-06-12T20:49:27.634Z,99240.55
2018-06-12T20:51:56.325Z,99247.91
2018-06-12T20:54:27.452Z,99243.08
2018-06-12T20:56:56.662Z,99244.34
2018-06-12T20:59:25.236Z,99250.64
2018-06-12T21:01:53.442Z,99249.54
2018-06-12T21:04:22.322Z,99255.33
2018-06-12T21:06:51.114Z,99250.17
2018-06-12T21:09:20.191Z,99248.65
2018-06-12T21:11:47.755Z,99252.74
2018-06-12T21:14:16.246Z,99256.38
2018-06-12T21:16:44.419Z,99251.77
2018-06-12T21:19:14.291Z,99253.57
2018-06-12T21:21:43.103Z,99255.06
2018-06-12T21:24:15.538Z,99254.77
2018-06-12T21:26:43.364Z,99249.14
2018-06-12T21:29:15.154Z,99254.39
2018-06-12T21:34:23.658Z,99253.45
2018-06-12T21:36:56.143Z,99256.36
2018-06-12T21:39:24.911Z,99255.55
2018-06-12T21:41:52.759Z,99252.32
2018-06-12T21:44:20.317Z,99258.91
2018-06-12T21:46:47.902Z,99253.05
2018-06-12T21:49:15.794Z,99254.61
2018-06-12T21:51:44.290Z,99250.55
2018-06-12T21:54:11.851Z,99252.04
2018-06-12T21:56:40.684Z,99245.23
2018-06-12T21:59:08.230Z,99248.39
2018-06-12T22:01:39.387Z,99248.39
2018-06-12T22:04:07.916Z,99239.91
2018-06-12T22:06:35.538Z,99242.11
2018-06-12T22:09:03.233Z,99242.11
2018-06-12T22:11:31.919Z,99240.28
2018-06-12T22:14:00.068Z,99238.72
2018-06-12T22:16:27.664Z,99241.38
2018-06-12T22:18:55.711Z,99238.48
2018-06-12T22:21:28.086Z,99238.48
2018-06-12T22:23:56.314Z,99238.25
2018-06-12T22:26:24.929Z,99241.69
2018-06-12T22:28:52.511Z,99246.78
2018-06-12T22:31:20.083Z,99246.02
2018-06-12T22:33:49.410Z,99248.45
2018-06-12T22:36:18.153Z,99248.68
2018-06-12T22:38:46.515Z,99250.85
2018-06-12T22:41:14.493Z,99250.85
2018-06-12T22:43:44.638Z,99253.52
2018-06-12T22:46:12.446Z,99255.41
2018-06-12T22:48:40.006Z,99253.28
2018-06-12T22:51:07.549Z,99249.28
2018-06-12T22:53:35.355Z,99248.52
2018-06-12T22:56:03.361Z,99255.71
2018-06-12T22:58:30.957Z,99259.70
2018-06-12T23:00:58.547Z,99264.23
2018-06-12T23:03:27.433Z,99264.01
2018-06-12T23:05:55.821Z,99266.14
2018-06-12T23:08:24.227Z,99265.91
2018-06-12T23:10:52.441Z,99266.97
2018-06-12T23:13:20.038Z,99269.90
2018-06-12T23:15:47.629Z,99278.96
2018-06-12T23:18:15.598Z,99276.30
2018-06-12T23:20:43.156Z,99276.86
2018-06-12T23:23:10.730Z,99273.41
2018-06-12T23:25:42.523Z,99267.30
2018-06-12T23:28:10.124Z,99271.84
2018-06-12T23:30:39.365Z,99265.68
2018-06-12T23:33:07.508Z,99273.67
2018-06-12T23:35:35.106Z,99272.91
2018-06-12T23:38:02.693Z,99272.91
2018-06-12T23:40:31.531Z,99268.67
2018-06-12T23:42:59.131Z,99267.58
2018-06-12T23:45:26.666Z,99260.69
2018-06-12T23:47:55.402Z,99262.85
2018-06-12T23:50:25.456Z,99260.19
2018-06-12T23:52:53.139Z,99260.98
2018-06-12T23:55:20.706Z,99257.83
2018-06-12T23:57:49.242Z,99261.52
